sensor_id;sensor_type;location;lat;lon;timestamp;temperature;humidity
80367;DHT22;70058;42.660;23.366;2023-12-20T00:00:59;3.90;68.10
80367;DHT22;70058;42.660;23.366;2023-12-20T00:03:24;4.00;67.80
80367;DHT22;70058;42.660;23.366;2023-12-20T00:05:50;4.00;67.70
80367;DHT22;70058;42.660;23.366;2023-12-20T00:08:16;4.00;67.40
80367;DHT22;70058;42.660;23.366;2023-12-20T00:10:43;4.00;67.30
80367;DHT22;70058;42.660;23.366;2023-12-20T00:13:09;4.00;67.20
80367;DHT22;70058;42.660;23.366;2023-12-20T00:15:35;3.90;67.30
80367;DHT22;70058;42.660;23.366;2023-12-20T00:18:01;3.80;67.80
80367;DHT22;70058;42.660;23.366;2023-12-20T00:20:27;3.80;67.90
80367;DHT22;70058;42.660;23.366;2023-12-20T00:22:57;3.70;68.10
80367;DHT22;70058;42.660;23.366;2023-12-20T00:25:24;3.70;68.10
80367;DHT22;70058;42.660;23.366;2023-12-20T00:27:49;3.70;68.40
80367;DHT22;70058;42.660;23.366;2023-12-20T00:30:15;3.60;68.20
80367;DHT22;70058;42.660;23.366;2023-12-20T00:32:41;3.60;68.10
80367;DHT22;70058;42.660;23.366;2023-12-20T00:35:14;3.60;68.40
80367;DHT22;70058;42.660;23.366;2023-12-20T00:37:40;3.60;68.70
80367;DHT22;70058;42.660;23.366;2023-12-20T00:40:06;3.60;68.50
80367;DHT22;70058;42.660;23.366;2023-12-20T00:42:32;3.60;68.90
80367;DHT22;70058;42.660;23.366;2023-12-20T00:44:59;3.60;68.70
80367;DHT22;70058;42.660;23.366;2023-12-20T00:47:25;3.60;68.60
80367;DHT22;70058;42.660;23.366;2023-12-20T00:49:50;3.70;67.70
80367;DHT22;70058;42.660;23.366;2023-12-20T00:52:16;3.60;67.60
80367;DHT22;70058;42.660;23.366;2023-12-20T00:54:43;3.60;67.70
80367;DHT22;70058;42.660;23.366;2023-12-20T00:57:09;3.50;68.10
80367;DHT22;70058;42.660;23.366;2023-12-20T00:59:35;3.40;68.50
80367;DHT22;70058;42.660;23.366;2023-12-20T01:02:00;3.30;68.90
80367;DHT22;70058;42.660;23.366;2023-12-20T01:04:26;3.30;69.20
80367;DHT22;70058;42.660;23.366;2023-12-20T01:06:52;3.30;69.60
80367;DHT22;70058;42.660;23.366;2023-12-20T01:09:18;3.40;68.70
80367;DHT22;70058;42.660;23.366;2023-12-20T01:11:44;3.40;68.70
80367;DHT22;70058;42.660;23.366;2023-12-20T01:14:11;3.40;68.20
80367;DHT22;70058;42.660;23.366;2023-12-20T01:16:37;3.40;68.20
80367;DHT22;70058;42.660;23.366;2023-12-20T01:19:03;3.30;68.30
80367;DHT22;70058;42.660;23.366;2023-12-20T01:21:28;3.30;68.50
80367;DHT22;70058;42.660;23.366;2023-12-20T01:23:54;3.40;68.20
80367;DHT22;70058;42.660;23.366;2023-12-20T01:26:20;3.40;68.20
80367;DHT22;70058;42.660;23.366;2023-12-20T01:28:45;3.30;68.60
80367;DHT22;70058;42.660;23.366;2023-12-20T01:31:11;3.30;68.70
80367;DHT22;70058;42.660;23.366;2023-12-20T01:33:36;3.20;68.00
80367;DHT22;70058;42.660;23.366;2023-12-20T01:36:03;3.20;68.20
80367;DHT22;70058;42.660;23.366;2023-12-20T01:38:29;3.30;68.20
80367;DHT22;70058;42.660;23.366;2023-12-20T01:40:54;3.30;67.80
80367;DHT22;70058;42.660;23.366;2023-12-20T01:43:20;3.20;68.20
80367;DHT22;70058;42.660;23.366;2023-12-20T01:45:46;3.20;68.40
80367;DHT22;70058;42.660;23.366;2023-12-20T01:48:12;3.30;68.00
80367;DHT22;70058;42.660;23.366;2023-12-20T01:50:39;3.50;67.50
80367;DHT22;70058;42.660;23.366;2023-12-20T01:53:07;3.50;66.90
80367;DHT22;70058;42.660;23.366;2023-12-20T01:55:35;3.50;66.40
80367;DHT22;70058;42.660;23.366;2023-12-20T01:58:03;3.40;66.80
80367;DHT22;70058;42.660;23.366;2023-12-20T02:00:30;3.40;66.40
80367;DHT22;70058;42.660;23.366;2023-12-20T02:02:57;3.30;67.20
80367;DHT22;70058;42.660;23.366;2023-12-20T02:05:26;3.20;67.70
80367;DHT22;70058;42.660;23.366;2023-12-20T02:07:53;3.10;68.10
80367;DHT22;70058;42.660;23.366;2023-12-20T02:10:19;3.20;68.20
80367;DHT22;70058;42.660;23.366;2023-12-20T02:12:44;3.10;67.90
80367;DHT22;70058;42.660;23.366;2023-12-20T02:15:10;3.20;67.80
80367;DHT22;70058;42.660;23.366;2023-12-20T02:17:36;3.20;67.60
80367;DHT22;70058;42.660;23.366;2023-12-20T02:20:04;3.10;67.50
80367;DHT22;70058;42.660;23.366;2023-12-20T02:22:31;3.00;67.30
80367;DHT22;70058;42.660;23.366;2023-12-20T02:24:57;3.00;67.10
80367;DHT22;70058;42.660;23.366;2023-12-20T02:27:23;2.90;67.20
80367;DHT22;70058;42.660;23.366;2023-12-20T02:29:49;2.90;68.30
80367;DHT22;70058;42.660;23.366;2023-12-20T02:32:18;2.90;67.00
80367;DHT22;70058;42.660;23.366;2023-12-20T02:34:45;2.80;67.50
80367;DHT22;70058;42.660;23.366;2023-12-20T02:37:11;2.70;67.50
80367;DHT22;70058;42.660;23.366;2023-12-20T02:39:37;2.70;67.60
80367;DHT22;70058;42.660;23.366;2023-12-20T02:42:03;2.80;68.10
80367;DHT22;70058;42.660;23.366;2023-12-20T02:44:28;3.00;66.80
80367;DHT22;70058;42.660;23.366;2023-12-20T02:46:54;3.00;66.20
80367;DHT22;70058;42.660;23.366;2023-12-20T02:49:20;3.00;66.70
80367;DHT22;70058;42.660;23.366;2023-12-20T02:51:46;3.00;66.60
80367;DHT22;70058;42.660;23.366;2023-12-20T02:54:11;3.10;66.00
80367;DHT22;70058;42.660;23.366;2023-12-20T02:56:37;3.10;66.60
80367;DHT22;70058;42.660;23.366;2023-12-20T02:59:03;3.20;66.30
80367;DHT22;70058;42.660;23.366;2023-12-20T03:01:31;3.30;66.00
80367;DHT22;70058;42.660;23.366;2023-12-20T03:03:57;3.40;65.70
80367;DHT22;70058;42.660;23.366;2023-12-20T03:06:23;3.50;65.90
80367;DHT22;70058;42.660;23.366;2023-12-20T03:08:48;3.50;65.30
80367;DHT22;70058;42.660;23.366;2023-12-20T03:11:14;3.60;64.90
80367;DHT22;70058;42.660;23.366;2023-12-20T03:13:40;3.60;64.40
80367;DHT22;70058;42.660;23.366;2023-12-20T03:16:09;3.70;64.70
80367;DHT22;70058;42.660;23.366;2023-12-20T03:18:35;3.60;64.30
80367;DHT22;70058;42.660;23.366;2023-12-20T03:21:01;3.60;64.90
80367;DHT22;70058;42.660;23.366;2023-12-20T03:23:27;3.60;65.60
80367;DHT22;70058;42.660;23.366;2023-12-20T03:25:52;3.60;65.60
80367;DHT22;70058;42.660;23.366;2023-12-20T03:28:18;3.50;66.50
80367;DHT22;70058;42.660;23.366;2023-12-20T03:30:44;3.70;65.80
80367;DHT22;70058;42.660;23.366;2023-12-20T03:33:10;3.80;65.30
80367;DHT22;70058;42.660;23.366;2023-12-20T03:35:36;3.70;65.40
80367;DHT22;70058;42.660;23.366;2023-12-20T03:38:01;3.50;66.20
80367;DHT22;70058;42.660;23.366;2023-12-20T03:40:27;3.60;66.40
80367;DHT22;70058;42.660;23.366;2023-12-20T03:42:53;3.70;66.00
80367;DHT22;70058;42.660;23.366;2023-12-20T03:45:18;3.70;65.60
80367;DHT22;70058;42.660;23.366;2023-12-20T03:47:44;3.70;65.10
80367;DHT22;70058;42.660;23.366;2023-12-20T03:50:09;3.60;65.40
80367;DHT22;70058;42.660;23.366;2023-12-20T03:52:35;3.60;65.70
80367;DHT22;70058;42.660;23.366;2023-12-20T03:55:01;3.50;65.60
80367;DHT22;70058;42.660;23.366;2023-12-20T03:57:26;3.40;65.90
80367;DHT22;70058;42.660;23.366;2023-12-20T03:59:52;3.50;65.90
80367;DHT22;70058;42.660;23.366;2023-12-20T04:02:18;3.40;66.50
80367;DHT22;70058;42.660;23.366;2023-12-20T04:04:44;3.50;66.00
80367;DHT22;70058;42.660;23.366;2023-12-20T04:07:09;3.60;65.70
80367;DHT22;70058;42.660;23.366;2023-12-20T04:09:35;3.60;65.50
80367;DHT22;70058;42.660;23.366;2023-12-20T04:12:00;3.50;65.60
80367;DHT22;70058;42.660;23.366;2023-12-20T04:14:26;3.50;65.60
80367;DHT22;70058;42.660;23.366;2023-12-20T04:16:53;3.60;65.60
80367;DHT22;70058;42.660;23.366;2023-12-20T04:19:19;3.60;65.70
80367;DHT22;70058;42.660;23.366;2023-12-20T04:21:44;3.50;65.40
80367;DHT22;70058;42.660;23.366;2023-12-20T04:24:10;3.50;65.80
80367;DHT22;70058;42.660;23.366;2023-12-20T04:26:36;3.60;65.40
80367;DHT22;70058;42.660;23.366;2023-12-20T04:29:01;3.60;65.30
80367;DHT22;70058;42.660;23.366;2023-12-20T04:31:27;3.50;65.30
80367;DHT22;70058;42.660;23.366;2023-12-20T04:33:53;3.70;65.10
80367;DHT22;70058;42.660;23.366;2023-12-20T04:36:18;3.70;64.80
80367;DHT22;70058;42.660;23.366;2023-12-20T04:38:44;3.60;65.00
80367;DHT22;70058;42.660;23.366;2023-12-20T04:41:10;3.50;65.20
80367;DHT22;70058;42.660;23.366;2023-12-20T04:43:35;3.50;65.40
80367;DHT22;70058;42.660;23.366;2023-12-20T04:46:01;3.50;65.50
80367;DHT22;70058;42.660;23.366;2023-12-20T04:48:27;3.50;65.40
80367;DHT22;70058;42.660;23.366;2023-12-20T04:50:53;3.60;65.20
80367;DHT22;70058;42.660;23.366;2023-12-20T04:53:19;3.50;65.70
80367;DHT22;70058;42.660;23.366;2023-12-20T04:55:44;3.50;65.60
80367;DHT22;70058;42.660;23.366;2023-12-20T04:58:10;3.40;65.70
80367;DHT22;70058;42.660;23.366;2023-12-20T05:00:35;3.30;65.80
80367;DHT22;70058;42.660;23.366;2023-12-20T05:03:01;3.30;66.50
80367;DHT22;70058;42.660;23.366;2023-12-20T05:05:27;3.20;66.50
80367;DHT22;70058;42.660;23.366;2023-12-20T05:07:52;3.30;66.10
80367;DHT22;70058;42.660;23.366;2023-12-20T05:10:18;3.20;66.20
80367;DHT22;70058;42.660;23.366;2023-12-20T05:12:44;3.30;66.40
80367;DHT22;70058;42.660;23.366;2023-12-20T05:15:10;3.40;65.40
80367;DHT22;70058;42.660;23.366;2023-12-20T05:17:35;3.50;65.00
80367;DHT22;70058;42.660;23.366;2023-12-20T05:20:01;3.60;64.30
80367;DHT22;70058;42.660;23.366;2023-12-20T05:22:27;3.60;63.80
80367;DHT22;70058;42.660;23.366;2023-12-20T05:24:53;3.60;64.00
80367;DHT22;70058;42.660;23.366;2023-12-20T05:27:19;3.70;63.70
80367;DHT22;70058;42.660;23.366;2023-12-20T05:29:45;3.60;63.70
80367;DHT22;70058;42.660;23.366;2023-12-20T05:32:11;3.70;63.60
80367;DHT22;70058;42.660;23.366;2023-12-20T05:34:36;3.60;63.50
80367;DHT22;70058;42.660;23.366;2023-12-20T05:37:03;3.40;64.00
80367;DHT22;70058;42.660;23.366;2023-12-20T05:39:28;3.30;64.90
80367;DHT22;70058;42.660;23.366;2023-12-20T05:41:56;3.20;64.60
80367;DHT22;70058;42.660;23.366;2023-12-20T05:44:22;3.40;64.70
80367;DHT22;70058;42.660;23.366;2023-12-20T05:46:47;3.20;65.10
80367;DHT22;70058;42.660;23.366;2023-12-20T05:49:13;3.20;65.10
80367;DHT22;70058;42.660;23.366;2023-12-20T05:51:39;3.10;65.30
80367;DHT22;70058;42.660;23.366;2023-12-20T05:54:05;3.10;65.80
80367;DHT22;70058;42.660;23.366;2023-12-20T05:56:30;3.10;65.40
80367;DHT22;70058;42.660;23.366;2023-12-20T05:58:56;3.20;65.70
80367;DHT22;70058;42.660;23.366;2023-12-20T06:01:26;3.30;65.40
80367;DHT22;70058;42.660;23.366;2023-12-20T06:03:52;3.40;65.10
80367;DHT22;70058;42.660;23.366;2023-12-20T06:06:18;3.40;63.90
80367;DHT22;70058;42.660;23.366;2023-12-20T06:08:43;3.40;64.50
80367;DHT22;70058;42.660;23.366;2023-12-20T06:11:09;3.20;65.30
80367;DHT22;70058;42.660;23.366;2023-12-20T06:13:35;3.30;65.10
80367;DHT22;70058;42.660;23.366;2023-12-20T06:16:01;3.30;65.00
80367;DHT22;70058;42.660;23.366;2023-12-20T06:18:27;3.50;64.40
80367;DHT22;70058;42.660;23.366;2023-12-20T06:20:52;3.60;64.40
80367;DHT22;70058;42.660;23.366;2023-12-20T06:23:18;3.60;63.90
80367;DHT22;70058;42.660;23.366;2023-12-20T06:25:44;3.70;63.70
80367;DHT22;70058;42.660;23.366;2023-12-20T06:28:10;3.50;64.00
80367;DHT22;70058;42.660;23.366;2023-12-20T06:30:39;3.60;64.60
80367;DHT22;70058;42.660;23.366;2023-12-20T06:33:05;3.60;64.30
80367;DHT22;70058;42.660;23.366;2023-12-20T06:35:32;3.60;64.50
80367;DHT22;70058;42.660;23.366;2023-12-20T06:37:58;3.60;64.40
80367;DHT22;70058;42.660;23.366;2023-12-20T06:40:24;3.60;64.40
80367;DHT22;70058;42.660;23.366;2023-12-20T06:42:49;3.70;64.40
80367;DHT22;70058;42.660;23.366;2023-12-20T06:45:16;3.80;64.30
80367;DHT22;70058;42.660;23.366;2023-12-20T06:47:42;3.80;64.30
80367;DHT22;70058;42.660;23.366;2023-12-20T06:50:07;3.90;64.00
80367;DHT22;70058;42.660;23.366;2023-12-20T06:52:34;4.00;64.00
80367;DHT22;70058;42.660;23.366;2023-12-20T06:55:00;4.10;63.30
80367;DHT22;70058;42.660;23.366;2023-12-20T06:57:26;4.30;63.00
80367;DHT22;70058;42.660;23.366;2023-12-20T06:59:53;4.30;62.90
80367;DHT22;70058;42.660;23.366;2023-12-20T07:02:18;4.40;62.60
80367;DHT22;70058;42.660;23.366;2023-12-20T07:04:44;4.60;61.90
80367;DHT22;70058;42.660;23.366;2023-12-20T07:07:10;4.50;62.10
80367;DHT22;70058;42.660;23.366;2023-12-20T07:09:35;4.60;62.50
80367;DHT22;70058;42.660;23.366;2023-12-20T07:12:01;4.60;61.70
80367;DHT22;70058;42.660;23.366;2023-12-20T07:14:27;4.80;61.40
80367;DHT22;70058;42.660;23.366;2023-12-20T07:16:54;4.70;61.00
80367;DHT22;70058;42.660;23.366;2023-12-20T07:19:20;4.70;61.50
80367;DHT22;70058;42.660;23.366;2023-12-20T07:21:46;4.70;62.30
80367;DHT22;70058;42.660;23.366;2023-12-20T07:24:12;4.80;61.70
80367;DHT22;70058;42.660;23.366;2023-12-20T07:26:38;4.90;61.80
80367;DHT22;70058;42.660;23.366;2023-12-20T07:29:05;5.00;61.30
80367;DHT22;70058;42.660;23.366;2023-12-20T07:31:30;5.10;60.90
80367;DHT22;70058;42.660;23.366;2023-12-20T07:33:56;5.00;60.90
80367;DHT22;70058;42.660;23.366;2023-12-20T07:36:22;4.90;61.10
80367;DHT22;70058;42.660;23.366;2023-12-20T07:38:48;5.00;60.90
80367;DHT22;70058;42.660;23.366;2023-12-20T07:41:13;5.10;60.70
80367;DHT22;70058;42.660;23.366;2023-12-20T07:43:41;5.10;60.50
80367;DHT22;70058;42.660;23.366;2023-12-20T07:46:08;5.30;60.00
80367;DHT22;70058;42.660;23.366;2023-12-20T07:48:35;5.20;59.70
80367;DHT22;70058;42.660;23.366;2023-12-20T07:51:01;5.00;60.90
80367;DHT22;70058;42.660;23.366;2023-12-20T07:53:27;5.10;60.90
80367;DHT22;70058;42.660;23.366;2023-12-20T07:55:53;5.10;60.90
80367;DHT22;70058;42.660;23.366;2023-12-20T07:58:19;5.30;60.70
80367;DHT22;70058;42.660;23.366;2023-12-20T08:00:45;5.30;60.60
80367;DHT22;70058;42.660;23.366;2023-12-20T08:03:10;5.30;60.50
80367;DHT22;70058;42.660;23.366;2023-12-20T08:05:37;5.50;60.20
80367;DHT22;70058;42.660;23.366;2023-12-20T08:08:04;5.60;59.70
80367;DHT22;70058;42.660;23.366;2023-12-20T08:10:30;5.60;59.60
80367;DHT22;70058;42.660;23.366;2023-12-20T08:12:56;5.60;60.40
80367;DHT22;70058;42.660;23.366;2023-12-20T08:15:22;5.60;59.10
80367;DHT22;70058;42.660;23.366;2023-12-20T08:17:47;5.70;58.90
80367;DHT22;70058;42.660;23.366;2023-12-20T08:20:13;5.60;59.30
80367;DHT22;70058;42.660;23.366;2023-12-20T08:22:39;5.90;58.40
80367;DHT22;70058;42.660;23.366;2023-12-20T08:25:05;5.90;57.90
80367;DHT22;70058;42.660;23.366;2023-12-20T08:27:30;5.90;58.30
80367;DHT22;70058;42.660;23.366;2023-12-20T08:29:57;6.10;57.60
80367;DHT22;70058;42.660;23.366;2023-12-20T08:32:25;6.20;58.00
80367;DHT22;70058;42.660;23.366;2023-12-20T08:34:52;6.20;57.50
80367;DHT22;70058;42.660;23.366;2023-12-20T08:37:18;6.40;57.50
80367;DHT22;70058;42.660;23.366;2023-12-20T08:39:43;6.50;56.70
80367;DHT22;70058;42.660;23.366;2023-12-20T08:42:09;6.60;57.00
80367;DHT22;70058;42.660;23.366;2023-12-20T08:44:35;6.50;56.60
80367;DHT22;70058;42.660;23.366;2023-12-20T08:47:00;6.40;56.80
80367;DHT22;70058;42.660;23.366;2023-12-20T08:49:27;6.30;56.80
80367;DHT22;70058;42.660;23.366;2023-12-20T08:51:53;6.30;57.10
80367;DHT22;70058;42.660;23.366;2023-12-20T08:54:19;6.20;57.60
80367;DHT22;70058;42.660;23.366;2023-12-20T08:56:45;6.40;56.60
80367;DHT22;70058;42.660;23.366;2023-12-20T08:59:11;6.30;57.20
80367;DHT22;70058;42.660;23.366;2023-12-20T09:01:37;6.30;57.40
80367;DHT22;70058;42.660;23.366;2023-12-20T09:04:03;6.30;57.30
80367;DHT22;70058;42.660;23.366;2023-12-20T09:06:28;6.30;57.30
80367;DHT22;70058;42.660;23.366;2023-12-20T09:08:54;6.30;57.40
80367;DHT22;70058;42.660;23.366;2023-12-20T09:11:20;6.30;57.90
80367;DHT22;70058;42.660;23.366;2023-12-20T09:13:45;6.30;57.70
80367;DHT22;70058;42.660;23.366;2023-12-20T09:16:11;6.40;57.40
80367;DHT22;70058;42.660;23.366;2023-12-20T09:18:38;6.50;57.00
80367;DHT22;70058;42.660;23.366;2023-12-20T09:21:04;6.50;57.00
80367;DHT22;70058;42.660;23.366;2023-12-20T09:23:30;6.50;56.90
80367;DHT22;70058;42.660;23.366;2023-12-20T09:25:55;6.50;57.10
80367;DHT22;70058;42.660;23.366;2023-12-20T09:28:21;6.70;56.80
80367;DHT22;70058;42.660;23.366;2023-12-20T09:30:47;6.80;56.20
80367;DHT22;70058;42.660;23.366;2023-12-20T09:33:13;7.00;55.50
80367;DHT22;70058;42.660;23.366;2023-12-20T09:35:39;7.10;55.10
80367;DHT22;70058;42.660;23.366;2023-12-20T09:38:05;7.20;55.10
80367;DHT22;70058;42.660;23.366;2023-12-20T09:40:32;7.30;54.60
80367;DHT22;70058;42.660;23.366;2023-12-20T09:43:13;7.30;54.30
80367;DHT22;70058;42.660;23.366;2023-12-20T09:45:40;7.50;54.50
80367;DHT22;70058;42.660;23.366;2023-12-20T09:48:07;7.60;54.10
80367;DHT22;70058;42.660;23.366;2023-12-20T09:50:36;7.70;53.40
80367;DHT22;70058;42.660;23.366;2023-12-20T09:53:02;8.00;53.00
80367;DHT22;70058;42.660;23.366;2023-12-20T09:55:31;8.20;52.30
80367;DHT22;70058;42.660;23.366;2023-12-20T09:57:59;8.20;52.10
80367;DHT22;70058;42.660;23.366;2023-12-20T10:00:24;8.40;51.60
80367;DHT22;70058;42.660;23.366;2023-12-20T10:02:57;8.40;51.60
80367;DHT22;70058;42.660;23.366;2023-12-20T10:05:27;8.50;51.70
80367;DHT22;70058;42.660;23.366;2023-12-20T10:07:53;8.50;50.90
80367;DHT22;70058;42.660;23.366;2023-12-20T10:10:19;8.60;51.40
80367;DHT22;70058;42.660;23.366;2023-12-20T10:13:07;8.70;50.90
80367;DHT22;70058;42.660;23.366;2023-12-20T10:15:35;8.80;51.20
80367;DHT22;70058;42.660;23.366;2023-12-20T10:18:01;8.80;50.40
80367;DHT22;70058;42.660;23.366;2023-12-20T10:20:28;8.70;50.20
80367;DHT22;70058;42.660;23.366;2023-12-20T10:22:58;8.00;51.30
80367;DHT22;70058;42.660;23.366;2023-12-20T10:25:24;7.70;52.80
80367;DHT22;70058;42.660;23.366;2023-12-20T10:28:08;7.60;53.90
80367;DHT22;70058;42.660;23.366;2023-12-20T10:30:34;7.70;53.70
80367;DHT22;70058;42.660;23.366;2023-12-20T10:32:59;7.80;53.20
80367;DHT22;70058;42.660;23.366;2023-12-20T10:35:25;7.70;53.80
80367;DHT22;70058;42.660;23.366;2023-12-20T10:37:55;7.70;53.60
80367;DHT22;70058;42.660;23.366;2023-12-20T10:40:22;7.80;53.80
80367;DHT22;70058;42.660;23.366;2023-12-20T10:42:53;7.80;53.80
80367;DHT22;70058;42.660;23.366;2023-12-20T10:45:19;7.60;53.70
80367;DHT22;70058;42.660;23.366;2023-12-20T10:47:46;7.50;54.60
80367;DHT22;70058;42.660;23.366;2023-12-20T10:50:12;7.50;54.80
80367;DHT22;70058;42.660;23.366;2023-12-20T10:52:40;7.30;56.30
80367;DHT22;70058;42.660;23.366;2023-12-20T10:55:07;7.20;55.70
80367;DHT22;70058;42.660;23.366;2023-12-20T10:57:33;7.10;55.80
80367;DHT22;70058;42.660;23.366;2023-12-20T11:00:01;7.00;57.20
80367;DHT22;70058;42.660;23.366;2023-12-20T11:02:39;6.70;56.80
80367;DHT22;70058;42.660;23.366;2023-12-20T11:08:26;6.80;57.80
80367;DHT22;70058;42.660;23.366;2023-12-20T11:11:06;6.80;57.20
80367;DHT22;70058;42.660;23.366;2023-12-20T11:13:36;6.80;58.30
80367;DHT22;70058;42.660;23.366;2023-12-20T11:16:03;6.70;58.30
80367;DHT22;70058;42.660;23.366;2023-12-20T11:18:30;6.60;59.10
80367;DHT22;70058;42.660;23.366;2023-12-20T11:21:01;6.50;59.30
80367;DHT22;70058;42.660;23.366;2023-12-20T11:23:30;5.30;60.80
80367;DHT22;70058;42.660;23.366;2023-12-20T11:25:58;5.30;63.30
80367;DHT22;70058;42.660;23.366;2023-12-20T11:28:25;5.50;63.10
80367;DHT22;70058;42.660;23.366;2023-12-20T11:30:56;5.60;62.90
80367;DHT22;70058;42.660;23.366;2023-12-20T11:33:26;5.60;62.80
80367;DHT22;70058;42.660;23.366;2023-12-20T11:35:55;5.60;62.60
80367;DHT22;70058;42.660;23.366;2023-12-20T11:38:21;5.60;62.60
80367;DHT22;70058;42.660;23.366;2023-12-20T11:40:50;5.50;62.40
80367;DHT22;70058;42.660;23.366;2023-12-20T11:43:39;5.60;63.10
80367;DHT22;70058;42.660;23.366;2023-12-20T11:46:09;5.60;63.30
80367;DHT22;70058;42.660;23.366;2023-12-20T11:48:37;5.70;63.20
80367;DHT22;70058;42.660;23.366;2023-12-20T11:51:08;5.80;63.00
80367;DHT22;70058;42.660;23.366;2023-12-20T11:53:34;5.70;62.70
80367;DHT22;70058;42.660;23.366;2023-12-20T11:56:00;5.40;62.90
80367;DHT22;70058;42.660;23.366;2023-12-20T11:58:28;5.60;63.80
80367;DHT22;70058;42.660;23.366;2023-12-20T12:00:55;5.60;64.20
80367;DHT22;70058;42.660;23.366;2023-12-20T12:03:20;5.80;63.00
80367;DHT22;70058;42.660;23.366;2023-12-20T12:05:53;5.90;63.10
80367;DHT22;70058;42.660;23.366;2023-12-20T12:08:19;6.10;62.30
80367;DHT22;70058;42.660;23.366;2023-12-20T12:10:45;6.10;62.10
80367;DHT22;70058;42.660;23.366;2023-12-20T12:13:11;6.20;62.00
80367;DHT22;70058;42.660;23.366;2023-12-20T12:15:40;6.30;61.80
80367;DHT22;70058;42.660;23.366;2023-12-20T12:18:08;6.40;61.50
80367;DHT22;70058;42.660;23.366;2023-12-20T12:20:33;6.50;61.50
80367;DHT22;70058;42.660;23.366;2023-12-20T12:23:02;6.50;61.60
80367;DHT22;70058;42.660;23.366;2023-12-20T12:25:29;6.60;61.00
80367;DHT22;70058;42.660;23.366;2023-12-20T12:27:57;6.60;60.50
80367;DHT22;70058;42.660;23.366;2023-12-20T12:30:23;6.60;60.80
80367;DHT22;70058;42.660;23.366;2023-12-20T12:32:50;6.80;61.00
80367;DHT22;70058;42.660;23.366;2023-12-20T12:35:16;6.90;60.50
80367;DHT22;70058;42.660;23.366;2023-12-20T12:37:42;6.90;59.90
80367;DHT22;70058;42.660;23.366;2023-12-20T12:40:10;6.80;59.50
80367;DHT22;70058;42.660;23.366;2023-12-20T12:42:37;6.60;60.70
80367;DHT22;70058;42.660;23.366;2023-12-20T12:45:03;6.70;61.00
80367;DHT22;70058;42.660;23.366;2023-12-20T12:47:30;6.80;60.80
80367;DHT22;70058;42.660;23.366;2023-12-20T12:49:56;7.00;60.20
80367;DHT22;70058;42.660;23.366;2023-12-20T12:52:22;7.00;59.70
80367;DHT22;70058;42.660;23.366;2023-12-20T12:54:48;7.00;60.20
80367;DHT22;70058;42.660;23.366;2023-12-20T12:57:15;7.10;59.90
80367;DHT22;70058;42.660;23.366;2023-12-20T12:59:43;7.00;59.90
80367;DHT22;70058;42.660;23.366;2023-12-20T13:02:12;6.90;60.30
80367;DHT22;70058;42.660;23.366;2023-12-20T13:04:37;6.80;61.10
80367;DHT22;70058;42.660;23.366;2023-12-20T13:07:03;6.70;61.00
80367;DHT22;70058;42.660;23.366;2023-12-20T13:09:29;6.60;61.30
80367;DHT22;70058;42.660;23.366;2023-12-20T13:11:55;6.10;63.20
80367;DHT22;70058;42.660;23.366;2023-12-20T13:14:21;5.90;63.90
80367;DHT22;70058;42.660;23.366;2023-12-20T13:16:47;6.00;63.50
80367;DHT22;70058;42.660;23.366;2023-12-20T13:19:13;5.90;63.70
80367;DHT22;70058;42.660;23.366;2023-12-20T13:21:38;6.00;63.70
80367;DHT22;70058;42.660;23.366;2023-12-20T13:24:05;6.00;63.70
80367;DHT22;70058;42.660;23.366;2023-12-20T13:26:31;6.00;63.40
80367;DHT22;70058;42.660;23.366;2023-12-20T13:28:57;6.00;63.40
80367;DHT22;70058;42.660;23.366;2023-12-20T13:31:22;5.90;63.70
80367;DHT22;70058;42.660;23.366;2023-12-20T13:33:48;6.00;63.90
80367;DHT22;70058;42.660;23.366;2023-12-20T13:36:14;6.00;63.50
80367;DHT22;70058;42.660;23.366;2023-12-20T13:38:39;6.00;63.60
80367;DHT22;70058;42.660;23.366;2023-12-20T13:41:05;6.00;63.30
80367;DHT22;70058;42.660;23.366;2023-12-20T13:43:32;5.80;63.70
80367;DHT22;70058;42.660;23.366;2023-12-20T13:46:01;5.80;64.00
80367;DHT22;70058;42.660;23.366;2023-12-20T13:48:26;5.80;64.70
80367;DHT22;70058;42.660;23.366;2023-12-20T13:50:52;5.80;64.40
80367;DHT22;70058;42.660;23.366;2023-12-20T13:53:18;5.80;64.50
80367;DHT22;70058;42.660;23.366;2023-12-20T13:55:46;5.80;64.40
80367;DHT22;70058;42.660;23.366;2023-12-20T13:58:12;5.80;64.30
80367;DHT22;70058;42.660;23.366;2023-12-20T14:00:38;5.70;64.60
80367;DHT22;70058;42.660;23.366;2023-12-20T14:03:04;5.70;64.70
80367;DHT22;70058;42.660;23.366;2023-12-20T14:05:30;5.80;64.90
80367;DHT22;70058;42.660;23.366;2023-12-20T14:07:57;5.70;64.90
80367;DHT22;70058;42.660;23.366;2023-12-20T14:10:26;5.80;64.60
80367;DHT22;70058;42.660;23.366;2023-12-20T14:12:53;5.90;64.40
80367;DHT22;70058;42.660;23.366;2023-12-20T14:15:18;5.90;64.50
80367;DHT22;70058;42.660;23.366;2023-12-20T14:17:44;5.90;64.50
80367;DHT22;70058;42.660;23.366;2023-12-20T14:20:10;5.90;64.10
80367;DHT22;70058;42.660;23.366;2023-12-20T14:22:38;5.80;64.20
80367;DHT22;70058;42.660;23.366;2023-12-20T14:25:04;5.90;64.20
80367;DHT22;70058;42.660;23.366;2023-12-20T14:27:31;5.90;64.30
80367;DHT22;70058;42.660;23.366;2023-12-20T14:29:57;5.80;64.70
80367;DHT22;70058;42.660;23.366;2023-12-20T14:32:23;5.80;64.50
80367;DHT22;70058;42.660;23.366;2023-12-20T14:34:50;5.80;64.50
80367;DHT22;70058;42.660;23.366;2023-12-20T14:37:15;5.70;64.50
80367;DHT22;70058;42.660;23.366;2023-12-20T14:39:42;5.70;64.70
80367;DHT22;70058;42.660;23.366;2023-12-20T14:42:08;5.60;65.00
80367;DHT22;70058;42.660;23.366;2023-12-20T14:44:37;5.60;65.20
80367;DHT22;70058;42.660;23.366;2023-12-20T14:47:04;5.60;65.20
80367;DHT22;70058;42.660;23.366;2023-12-20T14:49:30;5.50;65.00
80367;DHT22;70058;42.660;23.366;2023-12-20T14:51:55;5.40;65.30
80367;DHT22;70058;42.660;23.366;2023-12-20T14:54:21;5.60;65.30
80367;DHT22;70058;42.660;23.366;2023-12-20T14:56:47;5.70;64.80
80367;DHT22;70058;42.660;23.366;2023-12-20T14:59:13;5.80;64.60
80367;DHT22;70058;42.660;23.366;2023-12-20T15:01:39;5.80;64.30
80367;DHT22;70058;42.660;23.366;2023-12-20T15:04:06;5.70;64.70
80367;DHT22;70058;42.660;23.366;2023-12-20T15:06:52;5.70;64.60
80367;DHT22;70058;42.660;23.366;2023-12-20T15:09:18;5.60;65.00
80367;DHT22;70058;42.660;23.366;2023-12-20T15:11:44;5.50;65.00
80367;DHT22;70058;42.660;23.366;2023-12-20T15:14:10;5.60;64.80
80367;DHT22;70058;42.660;23.366;2023-12-20T15:16:35;5.60;65.10
80367;DHT22;70058;42.660;23.366;2023-12-20T15:19:01;5.50;65.50
80367;DHT22;70058;42.660;23.366;2023-12-20T15:21:27;5.40;65.40
80367;DHT22;70058;42.660;23.366;2023-12-20T15:23:58;5.40;65.70
80367;DHT22;70058;42.660;23.366;2023-12-20T15:26:34;5.30;66.30
80367;DHT22;70058;42.660;23.366;2023-12-20T15:29:02;5.30;65.60